createdAt,value
2023-03-23T15:57:55.992Z,30.00
2023-03-23T16:00:28.113Z,29.80
2023-03-23T16:02:59.179Z,31.20
2023-03-23T16:05:26.885Z,31.90
2023-03-23T16:07:54.183Z,32.70
2023-03-23T16:10:23.844Z,33.40
2023-03-23T16:12:51.094Z,34.20
2023-03-23T16:15:18.251Z,34.90
2023-03-23T16:17:46.627Z,35.60
2023-03-23T16:20:19.742Z,36.30
2023-03-23T16:22:47.692Z,36.60
2023-03-23T16:25:15.608Z,37.50
2023-03-23T16:27:43.410Z,38.10
2023-03-23T16:30:20.591Z,38.10
2023-03-23T16:32:47.558Z,38.60
2023-03-23T16:35:15.897Z,39.10
2023-03-23T16:37:47.851Z,39.70
2023-03-23T16:40:16.102Z,39.80
2023-03-23T16:42:43.338Z,40.30
2023-03-23T16:45:11.131Z,40.80
2023-03-23T16:47:38.187Z,41.20
2023-03-23T16:50:07.833Z,41.20
2023-03-23T16:52:34.795Z,41.00
2023-03-23T16:55:14.870Z,41.20
2023-03-23T16:57:42.990Z,40.90
2023-03-23T17:00:16.262Z,40.80
2023-03-23T17:02:43.735Z,41.20
2023-03-23T17:05:11.856Z,41.20
2023-03-23T17:07:40.954Z,40.90
2023-03-23T17:10:10.719Z,40.50
2023-03-23T17:12:37.723Z,40.70
2023-03-23T17:15:05.524Z,40.70
2023-03-23T17:17:32.850Z,41.00
2023-03-23T17:19:59.817Z,41.10
2023-03-23T17:22:26.928Z,41.20
2023-03-23T17:24:53.881Z,41.50
2023-03-23T17:27:22.089Z,41.70
2023-03-23T17:29:49.202Z,41.60
2023-03-23T17:32:17.033Z,41.70
2023-03-23T17:34:43.922Z,41.80
2023-03-23T17:37:11.072Z,42.20
2023-03-23T17:39:43.319Z,42.60
2023-03-23T17:42:10.902Z,42.70
2023-03-23T17:44:37.827Z,43.10
2023-03-23T17:47:05.089Z,43.50
2023-03-23T17:49:32.372Z,43.80
2023-03-23T17:52:00.379Z,44.00
2023-03-23T17:54:29.539Z,44.20
2023-03-23T17:56:58.513Z,44.60
2023-03-23T17:59:26.280Z,44.90
2023-03-23T18:01:53.907Z,45.30
2023-03-23T18:04:20.942Z,45.60
2023-03-23T18:06:47.825Z,45.80
2023-03-23T18:09:15.553Z,46.00
2023-03-23T18:11:42.641Z,46.30
2023-03-23T18:14:09.505Z,46.50
2023-03-23T18:16:36.434Z,46.80
2023-03-23T18:19:03.386Z,46.80
2023-03-23T18:21:30.451Z,46.90
2023-03-23T18:23:59.522Z,47.20
2023-03-23T18:26:27.985Z,47.50
2023-03-23T18:28:55.877Z,47.60
2023-03-23T18:31:22.794Z,47.70
2023-03-23T18:33:51.292Z,48.50
2023-03-23T18:36:20.931Z,48.00
2023-03-23T18:38:48.760Z,48.10
2023-03-23T18:41:17.037Z,48.40
2023-03-23T18:43:44.430Z,48.40
2023-03-23T18:46:11.335Z,48.50
2023-03-23T18:48:38.484Z,48.70
2023-03-23T18:51:06.239Z,48.80
2023-03-23T18:53:33.342Z,49.00
2023-03-23T18:56:06.721Z,49.20
2023-03-23T18:58:33.589Z,49.30
2023-03-23T19:01:07.516Z,49.40
2023-03-23T19:03:36.232Z,49.60
2023-03-23T19:06:04.620Z,49.80
2023-03-23T19:08:31.985Z,49.60
2023-03-23T19:11:01.132Z,49.90
2023-03-23T19:13:30.343Z,50.00
2023-03-23T19:15:57.610Z,50.10
2023-03-23T19:18:24.565Z,50.30
2023-03-23T19:23:22.453Z,50.40
2023-03-23T19:25:49.986Z,50.60
2023-03-23T19:30:49.797Z,50.90
2023-03-23T19:33:17.527Z,51.00
2023-03-23T19:35:48.980Z,51.20
2023-03-23T19:38:17.553Z,51.40
2023-03-23T19:40:56.018Z,51.60
2023-03-23T19:43:24.926Z,51.60
2023-03-23T19:45:53.550Z,52.00
2023-03-23T19:48:20.818Z,52.20
2023-03-23T19:50:51.005Z,52.30
2023-03-23T19:53:19.222Z,52.40
2023-03-23T19:55:46.346Z,52.60
2023-03-23T19:58:14.122Z,52.80
2023-03-23T20:00:41.314Z,53.00
2023-03-23T20:03:08.815Z,53.00
2023-03-23T20:05:36.243Z,53.10
2023-03-23T20:08:04.834Z,53.20
2023-03-23T20:10:34.662Z,53.20
2023-03-23T20:13:05.370Z,53.00
2023-03-23T20:15:32.803Z,52.80
2023-03-23T20:18:01.041Z,52.80
2023-03-23T20:20:28.413Z,52.90
2023-03-23T20:22:57.816Z,52.80
2023-03-23T20:25:25.978Z,52.90
2023-03-23T20:27:54.176Z,53.10
2023-03-23T20:30:21.860Z,53.30
2023-03-23T20:32:48.761Z,53.30
2023-03-23T20:35:16.399Z,53.60
2023-03-23T20:37:43.484Z,53.60
2023-03-23T20:40:15.038Z,53.60
2023-03-23T20:42:44.176Z,53.70
2023-03-23T20:45:13.097Z,53.70
2023-03-23T20:47:40.683Z,53.80
2023-03-23T20:50:09.512Z,53.70
2023-03-23T20:52:37.018Z,53.70
2023-03-23T20:55:04.317Z,53.70
2023-03-23T20:57:31.268Z,53.50
2023-03-23T20:59:58.097Z,53.60
2023-03-23T21:02:26.092Z,53.50
2023-03-23T21:04:53.408Z,53.50
2023-03-23T21:07:23.310Z,53.50
2023-03-23T21:09:50.222Z,53.40
2023-03-23T21:12:17.402Z,53.50
2023-03-23T21:14:45.076Z,53.50
2023-03-23T21:17:12.103Z,53.50
2023-03-23T21:19:39.491Z,53.80
2023-03-23T21:22:07.027Z,53.90
2023-03-23T21:24:37.495Z,54.00
2023-03-23T21:27:05.453Z,54.40
2023-03-23T21:29:32.897Z,54.70
2023-03-23T21:34:29.750Z,55.10
2023-03-23T21:36:56.567Z,55.40
2023-03-23T21:39:23.882Z,55.40
2023-03-23T21:41:50.845Z,55.60
2023-03-23T21:44:18.288Z,55.70
2023-03-23T21:46:45.429Z,55.80
2023-03-23T21:49:14.571Z,55.90
2023-03-23T21:51:42.881Z,55.90
2023-03-23T21:54:11.649Z,55.90
2023-03-23T21:56:38.925Z,56.00
2023-03-23T21:59:07.612Z,56.00
2023-03-23T22:01:37.047Z,56.10
2023-03-23T22:04:05.236Z,56.20
2023-03-23T22:06:34.482Z,56.20
2023-03-23T22:09:05.470Z,56.30
2023-03-23T22:11:33.251Z,56.40
2023-03-23T22:14:01.007Z,56.60
2023-03-23T22:16:28.595Z,56.60
2023-03-23T22:18:58.839Z,56.80
2023-03-23T22:21:27.226Z,57.00
2023-03-23T22:23:56.803Z,57.00
2023-03-23T22:26:24.418Z,57.20
2023-03-23T22:28:52.091Z,57.40
2023-03-23T22:31:27.492Z,57.60
2023-03-23T22:33:56.322Z,57.70
2023-03-23T22:36:25.295Z,57.80
2023-03-23T22:38:52.280Z,58.10
2023-03-23T22:41:22.222Z,58.10
2023-03-23T22:43:49.307Z,58.20
2023-03-23T22:46:16.880Z,58.30
2023-03-23T22:48:44.891Z,58.40
2023-03-23T22:51:13.066Z,58.60
2023-03-23T22:53:40.490Z,58.60
2023-03-23T22:56:08.395Z,58.70
2023-03-23T22:58:35.711Z,58.60
2023-03-23T23:01:06.627Z,58.50
2023-03-23T23:03:34.407Z,58.40
2023-03-23T23:06:02.542Z,58.30
2023-03-23T23:08:30.729Z,58.10
2023-03-23T23:10:59.956Z,57.90
2023-03-23T23:13:27.628Z,57.80
2023-03-23T23:15:56.605Z,57.70
2023-03-23T23:18:24.996Z,57.60
2023-03-23T23:20:54.019Z,57.50
2023-03-23T23:23:21.657Z,57.60
2023-03-23T23:25:50.093Z,57.70
2023-03-23T23:28:17.490Z,57.70
2023-03-23T23:30:44.695Z,57.80
2023-03-23T23:33:11.784Z,57.90
2023-03-23T23:35:39.985Z,58.10
2023-03-23T23:38:09.765Z,58.10
2023-03-23T23:40:36.890Z,58.20
2023-03-23T23:43:04.880Z,58.20
2023-03-23T23:45:32.523Z,58.00
2023-03-23T23:48:00.051Z,58.10
2023-03-23T23:50:27.839Z,58.00
2023-03-23T23:52:54.770Z,58.80
2023-03-23T23:55:22.057Z,58.40
2023-03-23T23:57:49.687Z,58.40
